createdAt,value
2018-07-03T06:04:55.631Z,990.81
2018-07-03T06:05:55.459Z,990.84
2018-07-03T06:07:00.694Z,990.89
2018-07-03T06:10:09.059Z,990.87
2018-07-03T06:12:29.217Z,990.90
2018-07-03T06:14:55.951Z,990.91
2018-07-03T06:16:18.980Z,990.90
2018-07-03T06:16:56.591Z,990.87
2018-07-03T06:17:56.663Z,990.87
2018-07-03T06:18:58.516Z,990.89
2018-07-03T06:19:58.887Z,990.84
2018-07-03T06:21:11.731Z,990.86
2018-07-03T06:22:02.101Z,990.87
2018-07-03T06:22:57.296Z,990.85
2018-07-03T06:25:14.839Z,990.84
2018-07-03T06:26:02.361Z,990.80
2018-07-03T06:27:01.291Z,990.77
2018-07-03T06:27:59.232Z,990.76
2018-07-03T06:29:17.647Z,990.76
2018-07-03T06:31:09.584Z,990.77
2018-07-03T07:05:29.418Z,990.82
2018-07-03T07:06:30.219Z,990.84
2018-07-03T07:07:30.362Z,990.83
2018-07-03T07:08:32.617Z,990.81
2018-07-03T07:09:30.466Z,990.82
2018-07-03T07:10:31.295Z,990.81
2018-07-03T07:11:30.805Z,990.81
2018-07-03T07:16:26.520Z,990.76
2018-07-03T07:16:47.935Z,990.80
2018-07-03T07:23:34.907Z,990.82
2018-07-03T07:24:41.435Z,990.83
2018-07-03T07:26:43.532Z,990.78
2018-07-03T07:27:44.954Z,990.78
2018-07-03T07:31:36.722Z,990.79
2018-07-03T07:32:39.166Z,990.73
2018-07-03T07:33:37.603Z,990.74
2018-07-03T07:37:32.200Z,990.76
2018-07-03T07:39:02.071Z,990.73
2018-07-03T07:39:31.521Z,990.72
2018-07-03T07:41:36.990Z,990.67
2018-07-03T07:42:03.391Z,990.68
2018-07-03T07:43:42.304Z,990.74
2018-07-03T07:44:46.991Z,990.71
2018-07-03T07:45:43.122Z,990.69
2018-07-03T07:48:12.808Z,990.74
2018-07-03T07:54:00.395Z,990.68
2018-07-03T07:56:42.312Z,990.70
2018-07-03T07:57:04.847Z,990.69
2018-07-03T08:06:31.164Z,990.64
2018-07-03T08:18:52.307Z,990.73
2018-07-03T08:19:49.108Z,990.71
2018-07-03T08:26:49.544Z,990.65
2018-07-03T08:27:46.318Z,990.67
2018-07-03T08:28:46.872Z,990.68
2018-07-03T08:29:47.149Z,990.63
2018-07-03T08:30:45.027Z,990.64
2018-07-03T08:31:45.154Z,990.62
2018-07-03T08:32:45.303Z,990.64
2018-07-03T08:33:45.469Z,990.65
2018-07-03T08:34:45.669Z,990.67
2018-07-03T08:35:45.833Z,990.66
2018-07-03T08:36:46.014Z,990.64
2018-07-03T08:37:46.084Z,990.61
2018-07-03T08:38:46.311Z,990.63
2018-07-03T08:39:46.583Z,990.64
2018-07-03T08:40:46.771Z,990.65
2018-07-03T08:41:46.987Z,990.62
2018-07-03T08:42:47.135Z,990.59
2018-07-03T08:43:47.277Z,990.57
2018-07-03T08:44:47.432Z,990.56
2018-07-03T08:45:47.649Z,990.53
2018-07-03T08:46:47.788Z,990.46
2018-07-03T08:47:47.940Z,990.45
2018-07-03T08:48:48.198Z,990.45
2018-07-03T08:49:48.317Z,990.46
2018-07-03T08:50:48.527Z,990.43
2018-07-03T08:51:48.740Z,990.54
2018-07-03T08:52:48.910Z,990.41
2018-07-03T08:53:49.016Z,990.43
2018-07-03T08:54:49.265Z,990.43
2018-07-03T08:55:49.421Z,990.44
2018-07-03T08:56:49.616Z,990.51
2018-07-03T08:57:49.767Z,990.51
2018-07-03T08:58:49.922Z,990.47
2018-07-03T08:59:50.013Z,990.52
2018-07-03T09:00:50.273Z,990.54
2018-07-03T09:01:50.385Z,990.53
2018-07-03T09:02:50.660Z,990.55
2018-07-03T09:03:50.847Z,990.58
2018-07-03T09:04:51.043Z,990.52
2018-07-03T09:05:51.241Z,990.55
2018-07-03T09:06:51.368Z,990.54
2018-07-03T09:07:51.592Z,990.49
2018-07-03T09:08:51.723Z,990.50
2018-07-03T09:09:51.918Z,990.50
2018-07-03T09:10:52.112Z,990.48
2018-07-03T09:11:52.229Z,990.48
2018-07-03T09:12:52.475Z,990.52
2018-07-03T09:13:52.634Z,990.51
2018-07-03T09:14:52.741Z,990.50
2018-07-03T09:15:52.995Z,990.44
2018-07-03T09:16:53.155Z,990.48
2018-07-03T09:17:53.380Z,990.43
2018-07-03T09:18:53.567Z,990.41
2018-07-03T09:19:53.739Z,990.45
2018-07-03T09:20:53.924Z,990.39
2018-07-03T09:21:55.022Z,990.39
2018-07-03T09:22:54.272Z,990.37
2018-07-03T09:23:54.488Z,990.40
2018-07-03T09:24:54.694Z,990.40
2018-07-03T09:25:54.807Z,990.38
2018-07-03T09:26:54.932Z,990.34
2018-07-03T09:27:55.126Z,990.40
2018-07-03T09:28:55.274Z,990.42
2018-07-03T09:29:55.515Z,990.40
2018-07-03T09:30:55.757Z,990.39
2018-07-03T09:31:55.860Z,990.42
2018-07-03T09:32:56.039Z,990.43
2018-07-03T09:33:56.644Z,990.41
2018-07-03T09:34:56.361Z,990.41
2018-07-03T09:35:56.500Z,990.40
2018-07-03T09:36:56.685Z,990.42
2018-07-03T09:37:56.906Z,990.38
2018-07-03T09:38:57.081Z,990.41
2018-07-03T09:39:57.199Z,990.38
2018-07-03T09:40:57.362Z,990.40
2018-07-03T09:41:57.652Z,990.43
2018-07-03T09:42:57.808Z,990.45
2018-07-03T09:43:57.980Z,990.40
2018-07-03T09:44:58.096Z,990.38
2018-07-03T09:45:58.197Z,990.44
2018-07-03T09:46:58.406Z,990.44
2018-07-03T09:47:58.585Z,990.45
2018-07-03T09:48:58.796Z,990.39
2018-07-03T09:49:59.113Z,990.39
2018-07-03T09:50:59.156Z,990.35
2018-07-03T09:51:59.409Z,990.39
2018-07-03T09:52:59.954Z,990.38
2018-07-03T09:53:59.915Z,990.35
2018-07-03T09:55:00.185Z,990.32
2018-07-03T09:56:00.353Z,990.30
2018-07-03T09:57:00.421Z,990.37
2018-07-03T09:58:00.620Z,990.30
2018-07-03T09:59:01.013Z,990.30
2018-07-03T10:00:01.033Z,990.33
2018-07-03T10:01:01.004Z,990.37
2018-07-03T10:02:01.399Z,990.37
2018-07-03T10:03:01.545Z,990.39
2018-07-03T10:04:01.709Z,990.37
2018-07-03T10:05:02.615Z,990.39
2018-07-03T10:06:02.282Z,990.36
2018-07-03T10:07:02.325Z,990.37
2018-07-03T10:08:02.636Z,990.36
2018-07-03T10:09:02.636Z,990.38
2018-07-03T10:10:02.869Z,990.25
2018-07-03T10:11:03.054Z,990.27
2018-07-03T10:12:03.187Z,990.29
2018-07-03T10:13:03.416Z,990.34
2018-07-03T10:14:03.629Z,990.37
2018-07-03T10:15:04.109Z,990.32
2018-07-03T10:16:04.313Z,990.41
2018-07-03T10:17:04.604Z,990.48
2018-07-03T10:18:04.607Z,990.48
2018-07-03T10:19:04.558Z,990.49
2018-07-03T10:20:04.686Z,990.51
2018-07-03T10:21:04.886Z,990.58
2018-07-03T10:22:04.963Z,990.61
2018-07-03T10:23:05.323Z,990.66
2018-07-03T10:24:05.405Z,990.69
2018-07-03T10:25:05.543Z,990.70
2018-07-03T10:26:05.821Z,990.64
2018-07-03T10:27:05.861Z,990.67
2018-07-03T10:28:06.245Z,990.68
2018-07-03T10:29:06.471Z,990.67
2018-07-03T10:30:06.448Z,990.70
2018-07-03T10:31:06.765Z,990.72
2018-07-03T10:32:07.118Z,990.68
2018-07-03T10:33:07.057Z,990.68
2018-07-03T10:34:07.292Z,990.70
2018-07-03T10:35:07.507Z,990.64
2018-07-03T10:36:07.668Z,990.65
2018-07-03T10:37:07.834Z,990.66
2018-07-03T10:38:07.963Z,990.67
2018-07-03T10:39:08.288Z,990.64
2018-07-03T10:40:08.388Z,990.60
2018-07-03T10:41:08.653Z,990.60
2018-07-03T10:42:08.828Z,990.61
2018-07-03T10:43:08.915Z,990.55
2018-07-03T10:44:09.194Z,990.65
2018-07-03T10:45:09.348Z,990.66
2018-07-03T10:46:09.451Z,990.64
2018-07-03T10:47:09.592Z,990.63
2018-07-03T10:48:09.782Z,990.54
2018-07-03T10:49:10.040Z,990.62
2018-07-03T10:50:10.539Z,990.66
2018-07-03T10:51:10.483Z,990.78
2018-07-03T10:52:10.636Z,991.06
2018-07-03T10:53:10.795Z,991.22
2018-07-03T10:54:11.050Z,991.25
2018-07-03T10:55:11.234Z,991.29
2018-07-03T10:56:11.469Z,991.27
2018-07-03T10:57:11.661Z,991.30
2018-07-03T10:58:11.901Z,991.38
2018-07-03T10:59:12.145Z,991.54
2018-07-03T11:00:12.262Z,991.73
2018-07-03T11:01:12.232Z,991.98
2018-07-03T11:02:12.541Z,992.09
2018-07-03T11:03:12.670Z,992.07
2018-07-03T11:04:12.910Z,992.09
2018-07-03T11:05:13.035Z,992.13
2018-07-03T11:06:14.274Z,992.34
2018-07-03T11:07:13.525Z,992.45
2018-07-03T11:08:13.468Z,992.59
2018-07-03T11:09:13.676Z,992.63
2018-07-03T11:10:13.803Z,992.66
2018-07-03T11:11:14.084Z,992.57
2018-07-03T11:12:14.337Z,992.66
2018-07-03T11:13:14.507Z,992.93
2018-07-03T11:14:14.701Z,992.98
2018-07-03T11:15:14.777Z,992.89
2018-07-03T11:16:14.989Z,992.81
2018-07-03T11:17:15.194Z,992.80
2018-07-03T11:18:15.319Z,992.82
2018-07-03T11:19:15.601Z,992.76
2018-07-03T11:20:15.855Z,992.72
2018-07-03T11:21:15.946Z,992.66
2018-07-03T11:22:16.112Z,992.59
2018-07-03T11:23:16.308Z,992.53
2018-07-03T11:24:16.429Z,992.44
2018-07-03T11:25:16.729Z,992.40
2018-07-03T11:26:16.800Z,992.27
2018-07-03T11:27:17.117Z,992.23
2018-07-03T11:28:17.210Z,992.16
2018-07-03T11:29:17.719Z,992.06
2018-07-03T11:30:17.579Z,992.04
2018-07-03T11:31:17.742Z,991.99
2018-07-03T11:32:17.856Z,991.91
2018-07-03T11:33:18.034Z,991.87
2018-07-03T11:34:18.292Z,991.84
2018-07-03T11:35:18.953Z,991.82
2018-07-03T11:36:18.603Z,991.77
2018-07-03T11:37:18.747Z,991.70
2018-07-03T11:38:19.025Z,991.61
2018-07-03T11:39:19.215Z,991.67
2018-07-03T11:40:19.510Z,991.56
2018-07-03T11:41:19.738Z,991.53
2018-07-03T11:42:20.923Z,991.54
2018-07-03T11:43:21.208Z,991.53
2018-07-03T11:44:20.253Z,991.52
2018-07-03T11:45:20.462Z,991.44
2018-07-03T11:46:20.646Z,991.42
2018-07-03T11:47:20.793Z,991.42
2018-07-03T11:48:21.044Z,991.40
2018-07-03T11:49:24.497Z,991.37
2018-07-03T11:50:21.837Z,991.30
2018-07-03T11:51:21.576Z,991.29
2018-07-03T11:52:22.067Z,991.26
2018-07-03T11:53:22.288Z,991.24
2018-07-03T11:54:22.236Z,991.22
2018-07-03T11:55:22.726Z,991.24
2018-07-03T11:56:22.647Z,991.22
2018-07-03T11:57:22.706Z,991.18
2018-07-03T11:58:23.154Z,991.18
2018-07-03T11:59:23.185Z,991.25
2018-07-03T12:00:23.372Z,991.20
2018-07-03T12:01:23.625Z,991.16
2018-07-03T12:02:23.646Z,991.15
2018-07-03T12:03:23.948Z,991.13
2018-07-03T12:04:24.663Z,991.11
2018-07-03T12:05:24.452Z,991.10
2018-07-03T12:06:24.238Z,991.08
2018-07-03T12:07:24.489Z,991.04
2018-07-03T12:08:24.632Z,991.05
2018-07-03T12:09:25.080Z,991.00
2018-07-03T12:10:25.144Z,991.02
2018-07-03T12:11:25.669Z,990.98
2018-07-03T12:12:25.619Z,990.96
2018-07-03T12:13:25.796Z,990.96
2018-07-03T12:14:26.135Z,990.96
2018-07-03T12:15:26.411Z,991.01
2018-07-03T12:16:26.340Z,991.04
2018-07-03T12:17:26.545Z,990.99
2018-07-03T12:18:26.838Z,990.72
2018-07-03T12:19:26.966Z,990.49
2018-07-03T12:20:27.162Z,990.29
2018-07-03T12:21:27.255Z,990.16
2018-07-03T12:22:27.432Z,990.08
2018-07-03T12:23:27.667Z,990.04
2018-07-03T12:24:27.950Z,990.02
2018-07-03T12:25:28.037Z,990.00
2018-07-03T12:26:28.289Z,990.00
2018-07-03T12:27:28.447Z,990.01
2018-07-03T12:28:28.561Z,989.98
2018-07-03T12:29:28.715Z,989.95
2018-07-03T12:30:29.114Z,989.93
2018-07-03T12:31:30.417Z,989.95
2018-07-03T12:32:30.176Z,989.91
2018-07-03T12:33:29.583Z,989.88
2018-07-03T12:34:29.734Z,989.89
2018-07-03T12:35:30.021Z,989.85
2018-07-03T12:36:30.134Z,989.84
2018-07-03T12:37:30.383Z,989.83
2018-07-03T12:38:30.688Z,989.80
2018-07-03T12:39:30.850Z,989.83
2018-07-03T12:40:30.994Z,989.84
2018-07-03T12:41:31.198Z,989.87
2018-07-03T12:42:31.294Z,989.83
2018-07-03T12:43:31.564Z,989.81
2018-07-03T12:44:31.770Z,989.77
2018-07-03T12:45:32.149Z,989.80
2018-07-03T12:46:32.111Z,989.75
2018-07-03T12:47:32.375Z,989.75
2018-07-03T12:48:32.486Z,989.75
2018-07-03T12:49:32.672Z,989.72
2018-07-03T12:50:32.862Z,989.71
2018-07-03T12:51:33.092Z,989.70
2018-07-03T12:52:33.281Z,989.71
2018-07-03T12:53:33.441Z,989.73
2018-07-03T12:54:33.617Z,989.75
2018-07-03T12:55:33.816Z,989.72
2018-07-03T12:56:34.036Z,989.76
2018-07-03T12:57:34.100Z,989.75
2018-07-03T12:58:34.354Z,989.73
2018-07-03T12:59:34.552Z,989.68
2018-07-03T13:00:34.659Z,989.68
2018-07-03T13:01:34.870Z,989.65
2018-07-03T13:02:35.121Z,989.66
2018-07-03T13:03:35.291Z,989.64
2018-07-03T13:04:35.405Z,989.66
2018-07-03T13:05:35.596Z,989.64
2018-07-03T13:06:35.842Z,989.67
2018-07-03T13:07:36.038Z,989.65
2018-07-03T13:08:36.253Z,989.66
2018-07-03T13:09:36.374Z,989.65
2018-07-03T13:10:36.586Z,989.65
2018-07-03T13:11:36.700Z,989.67
2018-07-03T13:12:36.908Z,989.65
2018-07-03T13:13:37.114Z,989.64
2018-07-03T13:14:37.300Z,989.64
2018-07-03T13:15:37.479Z,989.61
2018-07-03T13:16:37.690Z,989.62
2018-07-03T13:17:37.858Z,989.58
2018-07-03T13:18:37.997Z,989.56
2018-07-03T13:19:38.282Z,989.58
2018-07-03T13:20:38.508Z,989.58
2018-07-03T13:21:38.722Z,989.50
2018-07-03T13:22:38.929Z,989.50
2018-07-03T13:23:39.029Z,989.44
2018-07-03T13:24:39.262Z,989.46
2018-07-03T13:25:39.352Z,989.38
2018-07-03T13:26:39.565Z,989.40
2018-07-03T13:27:39.794Z,989.42
2018-07-03T13:28:40.010Z,989.41
2018-07-03T13:29:40.110Z,989.46
2018-07-03T13:30:40.331Z,989.40
2018-07-03T13:31:40.571Z,989.42
2018-07-03T13:32:40.740Z,989.40
2018-07-03T13:33:40.905Z,989.38
2018-07-03T13:34:41.034Z,989.41
2018-07-03T13:35:41.235Z,989.37
2018-07-03T13:36:41.440Z,989.37
2018-07-03T13:37:41.572Z,989.41
2018-07-03T13:38:41.816Z,989.33
2018-07-03T13:39:42.031Z,989.36
2018-07-03T13:40:42.182Z,989.38
2018-07-03T13:41:42.359Z,989.38
2018-07-03T13:42:42.607Z,989.37
2018-07-03T13:43:42.775Z,989.37
2018-07-03T13:44:42.893Z,989.36
2018-07-03T13:45:43.191Z,989.36
2018-07-03T13:46:43.374Z,989.39
2018-07-03T13:47:43.532Z,989.35
2018-07-03T13:48:43.679Z,989.33
2018-07-03T13:49:43.837Z,989.35
2018-07-03T13:50:44.085Z,989.38
2018-07-03T13:51:44.263Z,989.34
2018-07-03T13:52:44.413Z,989.32
2018-07-03T13:53:44.663Z,989.32
2018-07-03T13:54:44.887Z,989.36
2018-07-03T13:55:45.072Z,989.37
2018-07-03T13:56:45.341Z,989.36
2018-07-03T13:57:45.430Z,989.32
2018-07-03T13:58:45.653Z,989.33
2018-07-03T13:59:45.997Z,989.27
2018-07-03T14:00:46.029Z,989.28
2018-07-03T14:01:46.322Z,989.28
2018-07-03T14:02:46.471Z,989.30
2018-07-03T14:03:46.576Z,989.27
2018-07-03T14:04:46.783Z,989.28
2018-07-03T14:05:46.963Z,989.27
2018-07-03T14:06:47.206Z,989.25
2018-07-03T14:07:47.470Z,989.25
2018-07-03T14:08:47.923Z,989.21
2018-07-03T14:17:19.053Z,989.13
2018-07-03T14:18:13.496Z,989.15
2018-07-03T14:19:02.120Z,989.13
2018-07-03T14:40:25.178Z,988.93
2018-07-03T14:40:41.271Z,988.90
2018-07-03T14:41:18.250Z,988.88
2018-07-03T14:42:18.240Z,988.91
2018-07-03T14:43:18.531Z,988.87
2018-07-03T14:44:18.496Z,988.89
2018-07-03T14:45:18.975Z,988.89
2018-07-03T14:46:18.991Z,988.92
2018-07-03T14:47:19.166Z,988.90
2018-07-03T14:48:19.759Z,988.91
2018-07-03T14:49:19.655Z,988.90
2018-07-03T14:50:19.964Z,988.93
2018-07-03T14:51:19.884Z,988.90
2018-07-03T14:52:20.325Z,988.85
2018-07-03T14:53:20.376Z,988.84
2018-07-03T14:54:20.470Z,988.81
2018-07-03T14:55:20.503Z,988.82
2018-07-03T14:56:20.825Z,988.78
2018-07-03T14:57:21.086Z,988.81
2018-07-03T14:58:21.268Z,988.79
2018-07-03T14:59:21.664Z,988.77
2018-07-03T15:00:21.685Z,988.77
2018-07-03T15:01:21.962Z,988.73
2018-07-03T15:02:22.139Z,988.73
2018-07-03T15:03:22.677Z,988.74
2018-07-03T15:04:22.871Z,988.70
2018-07-03T15:05:22.711Z,988.70
2018-07-03T15:06:23.062Z,988.66
2018-07-03T15:07:23.214Z,988.75
2018-07-03T15:08:23.604Z,988.69
2018-07-03T15:09:23.608Z,988.69
2018-07-03T15:10:23.944Z,988.69
2018-07-03T15:11:24.158Z,988.67
2018-07-03T15:12:24.401Z,988.71
2018-07-03T15:13:24.418Z,988.69
2018-07-03T15:14:24.723Z,988.67
2018-07-03T15:15:24.853Z,988.68
2018-07-03T15:16:25.064Z,988.71
2018-07-03T15:17:25.268Z,988.65
2018-07-03T15:18:25.373Z,988.61
2018-07-03T15:19:25.539Z,988.62
2018-07-03T15:20:26.257Z,988.60
2018-07-03T15:21:25.851Z,988.63
2018-07-03T15:22:26.166Z,988.57
2018-07-03T15:23:26.407Z,988.56
2018-07-03T15:24:26.491Z,988.58
2018-07-03T15:25:26.889Z,988.56
2018-07-03T15:26:27.285Z,988.56
2018-07-03T15:27:27.343Z,988.57
2018-07-03T15:28:27.441Z,988.58
2018-07-03T15:29:27.604Z,988.59
2018-07-03T15:30:28.013Z,988.57
2018-07-03T15:31:27.926Z,988.55
2018-07-03T15:32:27.957Z,988.56
2018-07-03T15:33:28.307Z,988.58
2018-07-03T15:34:28.495Z,988.59
2018-07-03T15:35:28.623Z,988.59
2018-07-03T15:36:28.753Z,988.51
2018-07-03T15:37:29.038Z,988.51
2018-07-03T15:38:29.293Z,988.50
2018-07-03T15:39:29.627Z,988.48
2018-07-03T15:40:29.527Z,988.50
2018-07-03T15:41:29.922Z,988.48
2018-07-03T15:42:30.179Z,988.48
2018-07-03T15:43:30.439Z,988.47
2018-07-03T15:44:30.784Z,988.45
2018-07-03T15:45:30.634Z,988.46
2018-07-03T15:46:30.948Z,988.49
2018-07-03T15:47:31.109Z,988.48
2018-07-03T15:48:31.048Z,988.49
2018-07-03T15:49:31.123Z,988.45
2018-07-03T15:50:31.387Z,988.46
2018-07-03T15:51:31.550Z,988.47
2018-07-03T15:52:31.805Z,988.47
2018-07-03T15:53:31.909Z,988.43
2018-07-03T15:54:32.120Z,988.38
2018-07-03T15:55:32.238Z,988.39
2018-07-03T15:56:32.464Z,988.38
2018-07-03T15:57:32.730Z,988.38
2018-07-03T15:58:32.858Z,988.37
2018-07-03T15:59:33.087Z,988.33
2018-07-03T16:00:33.220Z,988.35
2018-07-03T16:01:33.421Z,988.33
2018-07-03T16:02:33.638Z,988.33
2018-07-03T16:03:33.727Z,988.32
2018-07-03T16:04:33.997Z,988.33
2018-07-03T16:05:34.168Z,988.34
2018-07-03T16:06:34.273Z,988.31
2018-07-03T16:07:34.680Z,988.29
2018-07-03T16:08:34.739Z,988.27
2018-07-03T16:09:34.969Z,988.29
2018-07-03T16:10:35.081Z,988.29
2018-07-03T16:11:35.330Z,988.29
2018-07-03T16:12:35.461Z,988.29
2018-07-03T16:13:35.651Z,988.28
2018-07-03T16:14:35.828Z,988.24
2018-07-03T16:15:35.947Z,988.23
2018-07-03T16:16:36.165Z,988.17
2018-07-03T16:17:36.319Z,988.20
2018-07-03T16:18:36.510Z,988.20
2018-07-03T16:19:36.649Z,988.15
2018-07-03T16:20:36.816Z,988.20
2018-07-03T16:21:37.025Z,988.19
2018-07-03T16:22:37.172Z,988.17
2018-07-03T16:23:37.362Z,988.17
2018-07-03T16:24:37.530Z,988.16
2018-07-03T16:25:37.803Z,988.13
2018-07-03T16:26:37.898Z,988.12
2018-07-03T16:27:38.110Z,988.12
2018-07-03T16:28:38.287Z,988.11
2018-07-03T16:29:38.493Z,988.06
2018-07-03T16:30:38.658Z,988.07
2018-07-03T16:31:38.756Z,988.04
2018-07-03T16:32:39.066Z,988.00
2018-07-03T16:33:39.158Z,988.05
2018-07-03T16:34:39.366Z,988.04
2018-07-03T16:35:39.549Z,988.03
2018-07-03T16:36:39.775Z,988.03
2018-07-03T16:37:39.945Z,988.04
2018-07-03T16:38:40.205Z,988.00
2018-07-03T16:39:40.364Z,988.00
2018-07-03T16:40:40.529Z,988.00
2018-07-03T16:41:40.628Z,988.00
2018-07-03T16:42:40.826Z,988.00
2018-07-03T16:43:41.058Z,987.95
2018-07-03T16:44:41.216Z,987.94
2018-07-03T16:45:41.321Z,987.89
2018-07-03T16:46:41.563Z,987.90
2018-07-03T16:47:41.690Z,987.86
2018-07-03T16:48:41.892Z,987.88
2018-07-03T16:49:42.075Z,987.82
2018-07-03T16:50:42.305Z,987.75
2018-07-03T16:51:42.461Z,987.75
2018-07-03T16:52:42.708Z,987.77
2018-07-03T16:53:42.779Z,987.78
2018-07-03T16:54:43.018Z,987.76
2018-07-03T16:55:43.165Z,987.79
2018-07-03T16:56:43.313Z,987.78
2018-07-03T16:57:43.511Z,987.76
2018-07-03T16:58:43.785Z,987.78
2018-07-03T16:59:43.881Z,987.74
2018-07-03T17:00:44.134Z,987.74
2018-07-03T17:01:44.229Z,987.75
2018-07-03T17:02:44.459Z,987.79
2018-07-03T17:03:44.606Z,987.76
2018-07-03T17:04:44.730Z,987.76
2018-07-03T17:05:44.946Z,987.81
2018-07-03T17:06:45.192Z,987.80
2018-07-03T17:07:45.356Z,987.80
2018-07-03T17:08:45.501Z,987.77
2018-07-03T17:09:45.751Z,987.83
2018-07-03T17:10:45.932Z,987.79
2018-07-03T17:11:46.021Z,987.82
2018-07-03T17:12:46.208Z,987.77
2018-07-03T17:13:46.470Z,987.82
2018-07-03T17:14:46.628Z,987.81
2018-07-03T17:15:46.834Z,987.78
2018-07-03T17:16:46.918Z,987.72
2018-07-03T17:17:47.161Z,987.78
2018-07-03T17:18:47.298Z,987.82
2018-07-03T17:19:47.493Z,987.77
2018-07-03T17:20:47.652Z,987.78
2018-07-03T17:21:47.809Z,987.75
2018-07-03T17:22:48.050Z,987.76
2018-07-03T17:23:48.199Z,987.74
2018-07-03T17:24:48.318Z,987.77
2018-07-03T17:25:48.531Z,987.75
2018-07-03T17:26:48.686Z,987.72
2018-07-03T17:27:48.970Z,987.70
2018-07-03T17:28:49.185Z,987.70
2018-07-03T17:29:49.250Z,987.68
2018-07-03T17:30:49.437Z,987.70
2018-07-03T17:31:49.673Z,987.71
2018-07-03T17:32:49.873Z,987.68
2018-07-03T17:33:50.305Z,987.73
2018-07-03T17:34:50.505Z,987.75
2018-07-03T17:35:50.606Z,987.79
2018-07-03T17:36:50.711Z,987.78
2018-07-03T17:37:50.780Z,987.73
2018-07-03T17:38:51.112Z,987.77
2018-07-03T17:39:51.151Z,987.75
2018-07-03T17:40:51.448Z,987.75
2018-07-03T17:41:51.511Z,987.76
2018-07-03T17:42:51.699Z,987.72
2018-07-03T17:43:51.830Z,987.69
2018-07-03T17:44:52.099Z,987.69
2018-07-03T17:45:52.211Z,987.69
2018-07-03T17:46:52.442Z,987.65
2018-07-03T17:47:52.882Z,987.67
2018-07-03T17:48:52.802Z,987.68
2018-07-03T17:49:52.869Z,987.68
2018-07-03T17:50:52.984Z,987.72
2018-07-03T17:51:53.218Z,987.71
2018-07-03T17:52:53.661Z,987.72
2018-07-03T17:53:53.490Z,987.71
2018-07-03T17:54:53.716Z,987.73
2018-07-03T17:55:53.981Z,987.68
2018-07-03T17:56:54.153Z,987.72
2018-07-03T17:57:54.335Z,987.71
2018-07-03T17:58:54.576Z,987.73
2018-07-03T17:59:54.791Z,987.73
2018-07-03T18:00:54.976Z,987.76
2018-07-03T18:01:55.068Z,987.78
2018-07-03T18:02:55.404Z,987.76
2018-07-03T18:03:55.433Z,987.80
2018-07-03T18:04:56.174Z,987.80
2018-07-03T18:05:55.854Z,987.77
2018-07-03T18:06:56.096Z,987.79
2018-07-03T18:07:56.346Z,987.73
2018-07-03T18:08:56.470Z,987.76
2018-07-03T18:09:56.659Z,987.67
2018-07-03T18:10:56.930Z,987.73
2018-07-03T18:11:57.090Z,987.77
2018-07-03T18:12:57.126Z,987.72
2018-07-03T18:13:57.273Z,987.70
2018-07-03T18:14:57.538Z,987.72
2018-07-03T18:15:57.725Z,987.69
2018-07-03T18:16:57.960Z,987.72
2018-07-03T18:17:58.078Z,987.67
2018-07-03T18:18:58.326Z,987.64
2018-07-03T18:19:58.560Z,987.65
2018-07-03T18:20:58.699Z,987.65
2018-07-03T18:21:58.895Z,987.65
2018-07-03T18:22:59.225Z,987.62
2018-07-03T18:23:59.217Z,987.62
2018-07-03T18:24:59.614Z,987.66
2018-07-03T18:25:59.682Z,987.67
2018-07-03T18:26:59.981Z,987.60
2018-07-03T18:28:00.044Z,987.60
2018-07-03T18:29:00.338Z,987.61
2018-07-03T18:30:00.377Z,987.58
2018-07-03T18:31:00.632Z,987.60
2018-07-03T18:32:00.898Z,987.56
2018-07-03T18:33:01.118Z,987.56
2018-07-03T18:34:01.284Z,987.55
2018-07-03T18:35:01.459Z,987.57
2018-07-03T18:36:01.594Z,987.55
2018-07-03T18:37:01.785Z,987.56
2018-07-03T18:38:01.910Z,987.55
2018-07-03T18:39:02.148Z,987.57
2018-07-03T18:40:02.221Z,987.58
2018-07-03T18:41:03.075Z,987.55
2018-07-03T18:42:02.993Z,987.53
2018-07-03T18:43:03.016Z,987.55
2018-07-03T18:44:03.170Z,987.52
2018-07-03T18:45:03.379Z,987.56
2018-07-03T18:46:03.594Z,987.54
2018-07-03T18:47:03.598Z,987.59
2018-07-03T18:48:04.286Z,987.57
2018-07-03T18:49:04.079Z,987.53
2018-07-03T18:50:04.280Z,987.54
2018-07-03T18:51:04.466Z,987.55
2018-07-03T18:52:04.624Z,987.54
2018-07-03T18:53:04.823Z,987.58
2018-07-03T18:54:05.088Z,987.60
2018-07-03T18:55:04.992Z,987.61
2018-07-03T18:56:05.130Z,987.64
2018-07-03T18:57:05.396Z,987.67
2018-07-03T18:58:05.382Z,987.63
2018-07-03T18:59:05.710Z,987.63
2018-07-03T19:00:05.850Z,987.64
2018-07-03T19:01:05.954Z,987.63
2018-07-03T19:02:06.246Z,987.64
2018-07-03T19:03:06.480Z,987.63
2018-07-03T19:04:06.634Z,987.66
2018-07-03T19:05:06.825Z,987.67
2018-07-03T19:06:07.037Z,987.69
2018-07-03T19:07:07.296Z,987.72
2018-07-03T19:08:07.599Z,987.71
2018-07-03T19:09:07.651Z,987.71
2018-07-03T19:10:07.912Z,987.71
2018-07-03T19:11:08.069Z,987.68
2018-07-03T19:12:08.180Z,987.71
2018-07-03T19:13:08.498Z,987.71
2018-07-03T19:14:08.585Z,987.70
2018-07-03T19:15:08.906Z,987.70
2018-07-03T19:16:08.940Z,987.68
2018-07-03T19:17:09.334Z,987.70
2018-07-03T19:18:09.366Z,987.68
2018-07-03T19:19:09.518Z,987.71
2018-07-03T19:20:09.691Z,987.68
2018-07-03T19:21:09.891Z,987.72
2018-07-03T19:22:10.035Z,987.78
2018-07-03T19:23:10.214Z,987.78
2018-07-03T19:24:10.553Z,987.80
2018-07-03T19:25:10.631Z,987.84
2018-07-03T19:26:10.867Z,987.81
2018-07-03T19:27:10.917Z,987.81
2018-07-03T19:28:11.282Z,987.82
2018-07-03T19:29:11.337Z,987.83
2018-07-03T19:30:11.442Z,987.84
2018-07-03T19:31:11.648Z,987.81
2018-07-03T19:32:11.854Z,987.86
2018-07-03T19:33:11.920Z,987.89
2018-07-03T19:34:12.264Z,987.90
2018-07-03T19:35:12.290Z,987.90
2018-07-03T19:36:12.611Z,987.92
2018-07-03T19:37:12.797Z,987.93
2018-07-03T19:38:12.834Z,987.90
2018-07-03T19:39:13.156Z,987.99
2018-07-03T19:40:13.189Z,987.98
2018-07-03T19:41:13.505Z,987.99
2018-07-03T19:42:13.709Z,987.97
2018-07-03T19:43:13.889Z,987.98
2018-07-03T19:44:14.193Z,988.00
2018-07-03T19:45:14.321Z,988.06
2018-07-03T19:46:14.523Z,988.05
2018-07-03T19:47:14.741Z,988.06
2018-07-03T19:48:15.223Z,988.05
2018-07-03T19:49:15.174Z,988.07
2018-07-03T19:50:15.300Z,988.08
2018-07-03T19:51:15.489Z,988.10
2018-07-03T19:52:15.683Z,988.11
2018-07-03T19:53:15.948Z,988.16
2018-07-03T19:54:16.304Z,988.12
2018-07-03T19:55:16.355Z,988.12
2018-07-03T19:56:16.672Z,988.15
2018-07-03T19:57:16.458Z,988.13
2018-07-03T19:58:16.736Z,988.13
2018-07-03T19:59:17.009Z,988.15
2018-07-03T20:00:17.921Z,988.15
2018-07-03T20:01:17.511Z,988.14
2018-07-03T20:02:17.493Z,988.17
2018-07-03T20:03:17.657Z,988.15
2018-07-03T20:04:18.038Z,988.17
2018-07-03T20:05:17.920Z,988.11
2018-07-03T20:06:18.179Z,988.15
2018-07-03T20:07:18.273Z,988.14
2018-07-03T20:08:18.520Z,988.12
2018-07-03T20:09:18.688Z,988.11
2018-07-03T20:10:18.706Z,988.15
2018-07-03T20:11:19.132Z,988.16
2018-07-03T20:12:19.349Z,988.18
2018-07-03T20:13:19.641Z,988.20
2018-07-03T20:14:19.419Z,988.21
2018-07-03T20:15:19.542Z,988.23
2018-07-03T20:16:20.050Z,988.21
2018-07-03T20:17:19.980Z,988.28
2018-07-03T20:18:20.286Z,988.21
2018-07-03T20:19:20.570Z,988.28
2018-07-03T20:20:20.907Z,988.24
2018-07-03T20:21:20.870Z,988.28
2018-07-03T20:22:21.073Z,988.25
2018-07-03T20:23:21.153Z,988.24
2018-07-03T20:24:21.669Z,988.27
2018-07-03T20:25:21.692Z,988.22
2018-07-03T20:26:22.103Z,988.22
2018-07-03T20:27:22.008Z,988.25
2018-07-03T20:28:22.292Z,988.21
2018-07-03T20:29:22.503Z,988.23
2018-07-03T20:30:22.616Z,988.19
2018-07-03T20:31:22.738Z,988.22
2018-07-03T20:32:23.296Z,988.20